Time;durP1;ratioP1;P1;durP2;ratioP2;P2;SDS_P1;SDS_P2;PMS_P1;PMS_P2;Temp;Humidity;BMP_temperature;BMP_pressure;BME280_temperature;BME280_humidity;BME280_pressure;Samples;Min_cycle;Max_cycle;Signal;HPM_P1;HPM_P2
2022/09/25 00:01:29;;;;;;;5.20;4.63;;;13.40;99.90;;;;;;5053651;28;20201;-80
2022/09/25 00:03:58;;;;;;;5.75;5.13;;;13.40;99.90;;;;;;5053276;28;20198;-80
2022/09/25 00:06:27;;;;;;;5.72;5.10;;;13.40;99.90;;;;;;5053360;28;20216;-80
2022/09/25 00:08:57;;;;;;;7.90;5.90;;;13.40;99.90;;;;;;5053164;28;20225;-80
2022/09/25 00:11:28;;;;;;;5.40;4.97;;;13.40;99.90;;;;;;5053504;28;20205;-80
2022/09/25 00:13:58;;;;;;;5.60;5.10;;;13.40;99.90;;;;;;5053466;28;20209;-80
2022/09/25 00:16:29;;;;;;;6.00;5.50;;;13.30;99.90;;;;;;5053153;28;20202;-80
2022/09/25 00:21:44;;;;;;;12.40;6.38;;;13.30;99.90;;;;;;5053230;28;20212;-80
2022/09/25 00:24:13;;;;;;;6.95;6.30;;;13.30;99.90;;;;;;5052956;28;20226;-80
2022/09/25 00:26:43;;;;;;;8.68;5.60;;;13.30;99.90;;;;;;5052851;28;20240;-80
2022/09/25 00:29:17;;;;;;;6.85;6.35;;;13.30;99.90;;;;;;5052626;28;20237;-80
2022/09/25 00:31:45;;;;;;;10.10;9.10;;;13.40;99.90;;;;;;5052798;28;20213;-80
2022/09/25 00:34:14;;;;;;;10.35;8.27;;;13.30;99.90;;;;;;5052886;28;20206;-80
2022/09/25 00:36:45;;;;;;;9.73;7.32;;;13.40;99.90;;;;;;5052903;28;20202;-86
2022/09/25 00:39:14;;;;;;;8.98;7.25;;;13.40;99.90;;;;;;5052459;28;20232;-86
2022/09/25 00:41:44;;;;;;;9.70;8.70;;;13.40;99.90;;;;;;5052858;28;20206;-86
2022/09/25 00:44:47;;;;;;;8.10;7.30;;;13.40;99.90;;;;;;5052524;28;20202;-85
2022/09/25 00:47:20;;;;;;;8.20;5.95;;;13.40;99.90;;;;;;5052879;28;20212;-86
2022/09/25 00:49:49;;;;;;;7.05;6.35;;;13.40;99.90;;;;;;5052801;28;20237;-86
2022/09/25 00:52:18;;;;;;;6.28;5.25;;;13.40;99.90;;;;;;5052923;28;20206;-86
2022/09/25 00:54:51;;;;;;;5.22;4.72;;;13.40;99.90;;;;;;5052837;28;20201;-86
2022/09/25 00:57:25;;;;;;;4.75;4.05;;;13.40;99.90;;;;;;5053122;28;20197;-86
2022/09/25 00:59:57;;;;;;;8.60;4.60;;;13.40;99.90;;;;;;5052505;28;20235;-85
2022/09/25 01:02:29;;;;;;;5.30;4.90;;;13.40;99.90;;;;;;5052358;28;20209;-86
2022/09/25 01:05:00;;;;;;;4.32;4.03;;;13.40;99.90;;;;;;5054416;28;20245;-85
2022/09/25 01:07:29;;;;;;;5.18;4.70;;;13.30;99.90;;;;;;5057141;28;20202;-86
2022/09/25 01:10:01;;;;;;;4.75;4.07;;;13.30;99.90;;;;;;5056097;28;20226;-85
2022/09/25 01:12:31;;;;;;;3.90;3.60;;;13.30;99.90;;;;;;5056936;28;20213;-85
2022/09/25 01:14:59;;;;;;;4.75;4.28;;;13.30;99.90;;;;;;5056593;28;20198;-87
2022/09/25 01:17:33;;;;;;;4.72;4.32;;;13.30;99.90;;;;;;5056509;28;20210;-86
2022/09/25 01:20:14;;;;;;;5.20;4.70;;;13.20;99.90;;;;;;5056342;28;20236;-86
2022/09/25 01:22:55;;;;;;;8.18;4.53;;;13.20;99.90;;;;;;5056415;28;20206;-85
2022/09/25 01:25:34;;;;;;;9.38;5.13;;;13.10;99.90;;;;;;5056365;28;20225;-85
2022/09/25 01:28:24;;;;;;;5.80;4.72;;;13.10;99.90;;;;;;5056352;28;20205;-86
2022/09/25 01:30:59;;;;;;;7.20;5.28;;;13.10;99.90;;;;;;5055963;28;20221;-85
2022/09/25 01:33:33;;;;;;;5.32;4.82;;;13.00;99.90;;;;;;5056219;28;20292;-85
2022/09/25 01:36:11;;;;;;;7.35;4.90;;;13.00;99.90;;;;;;5056487;28;20217;-86
2022/09/25 01:38:45;;;;;;;6.88;5.85;;;13.00;99.90;;;;;;5056522;28;20225;-85
2022/09/25 01:41:20;;;;;;;13.95;6.18;;;13.00;99.90;;;;;;5056006;28;20214;-79
2022/09/25 01:43:53;;;;;;;7.05;6.35;;;13.00;99.90;;;;;;5055985;28;20202;-79
2022/09/25 01:46:27;;;;;;;7.13;6.38;;;13.00;99.90;;;;;;5055724;28;20233;-79
2022/09/25 01:49:00;;;;;;;7.65;6.25;;;13.00;99.90;;;;;;5055696;28;20221;-85
2022/09/25 01:51:32;;;;;;;5.85;5.35;;;13.00;99.90;;;;;;5056770;28;20206;-85
2022/09/25 01:54:05;;;;;;;5.30;4.80;;;13.00;99.90;;;;;;5056017;28;20202;-85
2022/09/25 01:56:39;;;;;;;5.85;5.32;;;13.00;99.90;;;;;;5055817;28;20209;-85
2022/09/25 01:59:16;;;;;;;8.13;5.88;;;13.10;99.90;;;;;;5055532;28;20226;-85
2022/09/25 02:01:47;;;;;;;7.28;6.35;;;13.10;99.90;;;;;;5055902;28;20240;-85
2022/09/25 02:04:20;;;;;;;7.82;7.03;;;13.10;99.90;;;;;;5056355;28;20279;-85
2022/09/25 02:06:51;;;;;;;6.65;6.00;;;13.10;99.90;;;;;;5055262;28;20260;-85
2022/09/25 02:09:29;;;;;;;6.18;5.57;;;13.00;99.90;;;;;;5055364;28;20226;-85
2022/09/25 02:12:01;;;;;;;6.57;5.95;;;13.00;99.90;;;;;;5055538;28;20201;-86
2022/09/25 02:14:35;;;;;;;7.68;6.88;;;13.10;99.90;;;;;;5055580;28;20202;-85
2022/09/25 02:17:09;;;;;;;7.60;6.88;;;13.00;99.90;;;;;;5054889;28;20198;-86
2022/09/25 02:22:28;;;;;;;6.65;5.53;;;13.00;99.90;;;;;;5055355;28;20217;-80
2022/09/25 02:25:05;;;;;;;6.95;6.05;;;13.00;99.90;;;;;;5055326;28;20206;-80
2022/09/25 02:27:33;;;;;;;6.15;5.65;;;13.00;99.90;;;;;;5055426;28;20219;-85
2022/09/25 02:30:02;;;;;;;7.38;6.20;;;13.10;99.90;;;;;;5054787;28;20249;-86
2022/09/25 02:32:32;;;;;;;9.50;7.72;;;13.00;99.90;;;;;;5054847;28;20206;-79
2022/09/25 02:35:01;;;;;;;7.68;6.88;;;12.90;99.90;;;;;;5055276;28;20210;-80
2022/09/25 02:37:29;;;;;;;6.13;5.43;;;13.00;99.90;;;;;;5055116;28;20217;-80
2022/09/25 02:40:01;;;;;;;6.40;5.68;;;13.00;99.90;;;;;;5054805;28;20222;-80
2022/09/25 02:42:38;;;;;;;7.22;5.97;;;13.00;99.90;;;;;;5054921;28;20208;-80
2022/09/25 02:45:16;;;;;;;6.80;5.85;;;13.00;99.90;;;;;;5054822;28;20209;-81
2022/09/25 02:47:57;;;;;;;7.20;6.50;;;13.00;99.90;;;;;;5055002;28;20209;-80
2022/09/25 02:50:30;;;;;;;9.75;7.65;;;13.00;99.90;;;;;;5054851;28;20222;-79
2022/09/25 02:53:05;;;;;;;6.72;5.75;;;13.00;99.90;;;;;;5055061;28;20202;-80
2022/09/25 02:55:40;;;;;;;7.20;6.55;;;13.00;99.90;;;;;;5054819;28;20201;-79
2022/09/25 02:58:15;;;;;;;6.10;5.50;;;13.10;99.90;;;;;;5054735;28;20207;-79
2022/09/25 03:00:47;;;;;;;7.20;6.18;;;13.00;99.90;;;;;;5054266;28;20202;-80
2022/09/25 03:03:19;;;;;;;6.97;6.28;;;13.00;99.90;;;;;;5054801;28;20213;-79
2022/09/25 03:05:48;;;;;;;13.18;6.10;;;13.10;99.90;;;;;;5054364;28;20222;-79
2022/09/25 03:11:05;;;;;;;7.00;6.32;;;13.00;99.90;;;;;;5054576;28;20205;-79
2022/09/25 03:13:33;;;;;;;12.32;7.28;;;13.00;99.90;;;;;;5054124;28;20217;-80
2022/09/25 03:16:07;;;;;;;7.80;7.10;;;13.00;99.90;;;;;;5054202;28;20214;-79
2022/09/25 03:18:38;;;;;;;6.97;6.38;;;12.90;99.90;;;;;;5054183;28;20229;-80
2022/09/25 03:21:06;;;;;;;8.25;7.47;;;12.80;99.90;;;;;;5054215;28;20209;-81
2022/09/25 03:23:34;;;;;;;8.52;6.25;;;12.80;99.90;;;;;;5054555;28;20205;-81
2022/09/25 03:26:03;;;;;;;7.18;6.55;;;12.80;99.90;;;;;;5053741;28;20226;-81
2022/09/25 03:28:32;;;;;;;11.98;7.53;;;12.80;99.90;;;;;;5053755;28;20209;-80
2022/09/25 03:31:02;;;;;;;12.95;7.15;;;12.80;99.90;;;;;;5054160;28;20220;-79
2022/09/25 03:33:34;;;;;;;7.57;6.80;;;12.80;99.90;;;;;;5053782;28;20284;-80
2022/09/25 03:36:07;;;;;;;8.95;7.72;;;12.80;99.90;;;;;;5054264;28;20208;-79
2022/09/25 03:38:35;;;;;;;11.02;8.10;;;12.80;99.90;;;;;;5053551;28;20237;-81
2022/09/25 03:41:05;;;;;;;7.28;6.65;;;12.80;99.90;;;;;;5053833;28;20205;-81
2022/09/25 03:43:34;;;;;;;8.95;7.38;;;12.70;99.90;;;;;;5053479;28;20210;-79
2022/09/25 03:46:03;;;;;;;8.88;7.70;;;12.70;99.90;;;;;;5053932;28;20218;-80
2022/09/25 03:48:32;;;;;;;9.32;6.65;;;12.70;99.90;;;;;;5053443;28;20210;-79
2022/09/25 03:51:01;;;;;;;8.10;7.18;;;12.70;99.90;;;;;;5054078;28;20209;-79
2022/09/25 03:53:32;;;;;;;6.95;6.25;;;12.70;99.90;;;;;;5053807;28;20250;-80
2022/09/25 03:56:01;;;;;;;7.38;6.63;;;12.70;99.90;;;;;;5053686;28;20210;-80
2022/09/25 03:58:30;;;;;;;8.98;7.15;;;12.70;99.90;;;;;;5052824;28;20212;-80
2022/09/25 04:00:58;;;;;;;7.45;6.75;;;12.70;99.90;;;;;;5053337;28;20215;-80
2022/09/25 04:03:28;;;;;;;8.73;7.05;;;12.70;99.90;;;;;;5053522;28;20206;-79
2022/09/25 04:05:57;;;;;;;6.90;6.30;;;12.70;99.90;;;;;;5053317;28;20210;-79
2022/09/25 04:08:26;;;;;;;6.72;6.13;;;12.70;99.90;;;;;;5053006;28;20202;-79
2022/09/25 04:10:58;;;;;;;7.47;6.78;;;12.70;99.90;;;;;;5053393;28;20202;-80
2022/09/25 04:13:28;;;;;;;8.38;7.68;;;12.60;99.90;;;;;;5053188;28;20214;-79
2022/09/25 04:15:58;;;;;;;7.50;6.72;;;12.60;99.90;;;;;;5053598;28;20198;-79
2022/09/25 04:18:30;;;;;;;10.57;9.50;;;12.60;99.90;;;;;;5053066;28;20202;-80
2022/09/25 04:20:59;;;;;;;13.23;6.93;;;12.50;99.90;;;;;;5053652;28;20210;-79
2022/09/25 04:23:27;;;;;;;9.02;7.22;;;12.50;99.90;;;;;;5053152;28;20205;-80
2022/09/25 04:25:57;;;;;;;10.02;6.85;;;12.50;99.90;;;;;;5053005;28;20212;-79
2022/09/25 04:28:25;;;;;;;6.80;6.20;;;12.50;99.90;;;;;;5052807;28;20249;-81
2022/09/25 04:30:54;;;;;;;6.88;6.30;;;12.40;99.90;;;;;;5052728;28;20233;-79
2022/09/25 04:36:08;;;;;;;8.50;7.68;;;12.40;99.90;;;;;;5052800;28;20212;-80
2022/09/25 04:38:36;;;;;;;6.90;6.40;;;12.50;99.90;;;;;;5052100;28;20234;-79
2022/09/25 04:41:07;;;;;;;7.32;6.68;;;12.40;99.90;;;;;;5052964;28;20221;-81
2022/09/25 04:43:35;;;;;;;7.30;6.57;;;12.40;99.90;;;;;;5052697;28;20210;-79
2022/09/25 04:46:05;;;;;;;10.48;7.30;;;12.40;99.90;;;;;;5052594;28;20213;-80
2022/09/25 04:48:34;;;;;;;11.80;6.50;;;12.40;99.90;;;;;;5051937;28;20317;-80
2022/09/25 04:51:03;;;;;;;7.70;6.43;;;12.40;99.90;;;;;;5052654;28;20297;-80
2022/09/25 04:53:33;;;;;;;6.90;6.22;;;12.40;99.90;;;;;;5052947;28;20210;-80
2022/09/25 04:56:03;;;;;;;7.65;6.88;;;12.40;99.90;;;;;;5052635;28;20216;-80
2022/09/25 04:58:32;;;;;;;13.20;6.45;;;12.40;99.90;;;;;;5052268;28;20202;-80
2022/09/25 05:01:03;;;;;;;8.30;7.50;;;12.50;99.90;;;;;;5052840;28;20217;-80
2022/09/25 05:03:31;;;;;;;9.38;8.38;;;12.50;99.90;;;;;;5052821;28;20232;-81
2022/09/25 05:05:59;;;;;;;10.90;7.55;;;12.50;99.90;;;;;;5052677;28;20212;-81
2022/09/25 05:08:28;;;;;;;8.50;7.70;;;12.50;99.90;;;;;;5052131;28;20244;-81
2022/09/25 05:10:56;;;;;;;10.85;8.00;;;12.50;99.90;;;;;;5052501;28;20205;-81
2022/09/25 05:13:24;;;;;;;7.35;6.68;;;12.50;99.90;;;;;;5052189;28;20216;-80
2022/09/25 05:15:55;;;;;;;7.63;6.97;;;12.50;99.90;;;;;;5052605;28;20213;-86
2022/09/25 05:18:24;;;;;;;7.40;6.78;;;12.50;99.90;;;;;;5052190;28;20208;-86
2022/09/25 05:20:53;;;;;;;7.63;6.93;;;12.60;99.90;;;;;;5052649;28;20213;-87
2022/09/25 05:23:22;;;;;;;7.95;7.25;;;12.60;99.90;;;;;;5052456;28;20210;-85
2022/09/25 05:25:56;;;;;;;9.73;7.72;;;12.60;99.90;;;;;;5052147;28;20214;-85
2022/09/25 05:28:25;;;;;;;11.30;8.95;;;12.60;99.90;;;;;;5052014;28;20291;-86
2022/09/25 05:30:55;;;;;;;8.63;7.80;;;12.60;99.90;;;;;;5052474;28;20220;-86
2022/09/25 05:33:23;;;;;;;8.57;7.82;;;12.60;99.90;;;;;;5052559;28;20214;-87
2022/09/25 05:35:51;;;;;;;7.38;6.78;;;12.70;99.90;;;;;;5052522;28;20206;-85
2022/09/25 05:38:19;;;;;;;9.75;7.35;;;12.70;99.90;;;;;;5051859;28;20209;-85
2022/09/25 05:40:47;;;;;;;7.18;6.50;;;12.70;99.90;;;;;;5052181;28;20206;-85
2022/09/25 05:43:16;;;;;;;11.15;7.72;;;12.80;99.90;;;;;;5051715;28;20212;-86
2022/09/25 05:45:44;;;;;;;7.43;6.78;;;12.80;99.90;;;;;;5052695;28;20217;-86
2022/09/25 05:48:15;;;;;;;8.02;7.25;;;12.80;99.90;;;;;;5052175;28;20221;-86
2022/09/25 05:50:43;;;;;;;9.90;8.23;;;12.80;99.90;;;;;;5051706;28;20217;-85
2022/09/25 05:53:11;;;;;;;7.88;7.18;;;12.80;99.90;;;;;;5055883;28;20209;-85
2022/09/25 05:55:39;;;;;;;9.02;8.15;;;12.90;99.90;;;;;;5055906;28;20213;-86
2022/09/25 05:58:07;;;;;;;7.55;6.85;;;12.90;99.90;;;;;;5055945;28;20206;-85
2022/09/25 06:00:35;;;;;;;8.43;7.63;;;13.00;99.90;;;;;;5055413;28;20229;-85
2022/09/25 06:03:04;;;;;;;8.52;7.70;;;13.00;99.90;;;;;;5055537;28;20232;-85
2022/09/25 06:05:33;;;;;;;8.90;8.00;;;13.00;99.90;;;;;;5055708;28;20214;-86
2022/09/25 06:08:02;;;;;;;8.43;7.68;;;13.10;99.90;;;;;;5055434;28;20226;-86
2022/09/25 06:10:30;;;;;;;8.95;8.07;;;13.10;99.90;;;;;;5055162;28;20252;-85
2022/09/25 06:12:59;;;;;;;7.95;7.15;;;13.20;99.90;;;;;;5055672;28;20210;-85
2022/09/25 06:15:28;;;;;;;9.40;7.43;;;13.20;99.90;;;;;;5055421;28;20210;-85
2022/09/25 06:17:57;;;;;;;9.73;8.52;;;13.20;99.90;;;;;;5055492;28;20213;-86
2022/09/25 06:20:25;;;;;;;11.20;8.25;;;13.30;99.90;;;;;;5055236;28;20230;-85
2022/09/25 06:22:56;;;;;;;9.15;8.27;;;13.40;99.90;;;;;;5055158;28;20209;-85
2022/09/25 06:25:26;;;;;;;9.23;8.35;;;13.40;99.90;;;;;;5055582;28;20217;-85
2022/09/25 06:27:55;;;;;;;8.05;7.32;;;13.40;99.90;;;;;;5055120;28;20229;-86
2022/09/25 06:30:26;;;;;;;14.70;8.45;;;13.50;99.90;;;;;;5054705;28;20236;-86
2022/09/25 06:32:57;;;;;;;9.00;8.18;;;13.50;99.90;;;;;;5055309;28;20271;-86
2022/09/25 06:35:26;;;;;;;7.80;7.10;;;13.60;99.90;;;;;;5055314;28;20209;-85
2022/09/25 06:37:59;;;;;;;8.35;7.55;;;13.60;99.90;;;;;;5055179;28;20209;-86
2022/09/25 06:40:30;;;;;;;10.77;7.80;;;13.70;99.90;;;;;;5054703;28;20222;-85
2022/09/25 06:42:58;;;;;;;7.82;7.15;;;13.70;99.90;;;;;;5055253;28;20293;-85
2022/09/25 06:45:28;;;;;;;6.78;5.85;;;13.80;99.90;;;;;;5055130;28;20198;-85
2022/09/25 06:48:01;;;;;;;10.63;7.97;;;13.90;99.90;;;;;;5054875;28;20252;-86
2022/09/25 06:50:34;;;;;;;7.18;6.68;;;13.80;99.90;;;;;;5054560;28;20252;-86
2022/09/25 06:53:04;;;;;;;8.63;7.80;;;13.80;99.90;;;;;;5054808;28;20301;-85
2022/09/25 06:55:33;;;;;;;11.20;8.60;;;13.90;99.90;;;;;;5054834;28;20292;-85
2022/09/25 06:58:03;;;;;;;7.78;7.07;;;13.90;99.90;;;;;;5054944;28;20284;-86
2022/09/25 07:00:34;;;;;;;13.45;9.07;;;13.90;99.90;;;;;;5054258;28;20329;-85
2022/09/25 07:06:00;;;;;;;10.65;6.85;;;14.00;99.90;;;;;;5053012;28;20210;-85
2022/09/25 07:08:31;;;;;;;8.77;7.78;;;14.10;99.90;;;;;;5053341;28;20222;-80
2022/09/25 07:11:00;;;;;;;7.43;6.72;;;14.20;99.90;;;;;;5054411;28;20209;-80
2022/09/25 07:13:30;;;;;;;8.55;7.50;;;14.30;99.90;;;;;;5054330;28;20208;-81
2022/09/25 07:16:00;;;;;;;8.45;6.95;;;14.40;99.90;;;;;;5054476;28;20206;-80
2022/09/25 07:18:29;;;;;;;20.83;7.97;;;14.50;99.90;;;;;;5054318;28;20210;-79
2022/09/25 07:21:02;;;;;;;7.68;6.53;;;14.60;99.90;;;;;;5054394;28;20209;-80
2022/09/25 07:23:32;;;;;;;6.85;6.25;;;14.70;99.90;;;;;;5054156;28;20204;-80
2022/09/25 07:26:05;;;;;;;8.00;7.13;;;14.80;99.90;;;;;;5054060;28;20210;-85
2022/09/25 07:28:34;;;;;;;6.05;5.50;;;14.90;99.90;;;;;;5053790;28;20225;-85
2022/09/25 07:31:13;;;;;;;7.25;6.55;;;14.90;99.90;;;;;;5054075;28;20218;-79
2022/09/25 07:33:42;;;;;;;6.70;6.13;;;15.00;99.90;;;;;;5053983;28;20206;-80
2022/09/25 07:36:10;;;;;;;7.25;6.65;;;15.00;99.90;;;;;;5054029;28;20201;-81
2022/09/25 07:38:40;;;;;;;7.15;6.40;;;15.10;99.90;;;;;;5053710;28;20225;-79
2022/09/25 07:41:11;;;;;;;6.60;6.00;;;15.10;99.90;;;;;;5053727;28;20210;-80
2022/09/25 07:43:41;;;;;;;6.85;6.15;;;15.10;99.90;;;;;;5053763;28;20211;-80
2022/09/25 07:46:09;;;;;;;7.45;6.55;;;15.10;99.90;;;;;;5053778;28;20206;-79
2022/09/25 07:48:38;;;;;;;5.90;5.40;;;15.20;99.90;;;;;;5053614;28;20241;-79
2022/09/25 07:51:08;;;;;;;6.32;5.72;;;15.30;99.90;;;;;;5053672;28;20206;-80
2022/09/25 07:53:37;;;;;;;6.30;5.80;;;15.30;99.90;;;;;;5053582;28;20216;-79
2022/09/25 07:56:07;;;;;;;5.65;5.15;;;15.40;99.90;;;;;;5053625;28;20217;-79
2022/09/25 07:58:35;;;;;;;6.15;5.63;;;15.40;99.90;;;;;;5053587;28;20220;-79
2022/09/25 08:01:06;;;;;;;7.13;5.47;;;15.50;99.90;;;;;;5053397;28;20214;-79
2022/09/25 08:03:35;;;;;;;6.47;5.35;;;15.50;99.90;;;;;;5053325;28;20206;-80
2022/09/25 08:06:05;;;;;;;7.88;5.78;;;15.50;99.90;;;;;;5053310;28;20213;-80
2022/09/25 08:08:34;;;;;;;8.13;6.25;;;15.50;99.90;;;;;;5052991;28;20221;-80
2022/09/25 08:11:05;;;;;;;8.13;6.32;;;15.50;99.90;;;;;;5053691;28;20212;-79
2022/09/25 08:13:36;;;;;;;6.72;5.82;;;15.50;99.90;;;;;;5052551;28;20215;-80
2022/09/25 08:16:05;;;;;;;6.93;6.18;;;15.50;99.90;;;;;;5053585;28;20209;-80
2022/09/25 08:18:33;;;;;;;8.50;7.32;;;15.50;99.90;;;;;;5053112;28;20224;-80
2022/09/25 08:21:02;;;;;;;6.90;6.30;;;15.40;99.90;;;;;;5052998;28;20210;-80
2022/09/25 08:23:32;;;;;;;9.52;7.20;;;15.40;99.90;;;;;;5053201;28;20206;-80
2022/09/25 08:26:00;;;;;;;8.95;6.28;;;15.30;99.90;;;;;;5053199;28;20214;-80
2022/09/25 08:28:29;;;;;;;6.82;6.22;;;15.40;99.90;;;;;;5052848;28;20224;-80
2022/09/25 08:31:00;;;;;;;8.10;6.22;;;15.40;99.90;;;;;;5053382;28;20216;-79
2022/09/25 08:33:28;;;;;;;7.45;6.75;;;15.40;99.90;;;;;;5053087;28;20213;-81
2022/09/25 08:36:00;;;;;;;9.77;7.63;;;15.40;99.90;;;;;;5053281;28;20229;-80
2022/09/25 08:38:31;;;;;;;7.72;6.93;;;15.40;99.90;;;;;;5052602;28;20210;-79
2022/09/25 08:41:03;;;;;;;7.55;6.85;;;15.40;99.90;;;;;;5052890;28;20214;-80
2022/09/25 08:43:36;;;;;;;7.10;6.60;;;15.40;99.90;;;;;;5051605;28;20205;-80
2022/09/25 08:49:05;;;;;;;19.33;8.88;;;15.40;99.90;;;;;;5052354;28;20265;-79
2022/09/25 08:51:36;;;;;;;9.82;8.88;;;15.40;99.90;;;;;;5052998;28;20210;-79
2022/09/25 08:54:05;;;;;;;7.70;6.97;;;15.20;99.90;;;;;;5053005;28;20214;-80
2022/09/25 08:56:36;;;;;;;8.65;7.95;;;15.20;99.90;;;;;;5052677;28;20292;-80
2022/09/25 08:59:22;;;;;;;8.88;8.02;;;15.10;99.90;;;;;;5052148;28;20229;-79
2022/09/25 09:01:56;;;;;;;10.75;8.57;;;15.00;99.90;;;;;;5052615;28;20217;-79
2022/09/25 09:04:28;;;;;;;10.50;7.68;;;14.90;99.90;;;;;;5052799;28;20201;-79
2022/09/25 09:07:00;;;;;;;10.57;8.88;;;14.90;99.90;;;;;;5053039;28;20202;-80
2022/09/25 09:09:52;;;;;;;7.78;7.07;;;14.90;99.90;;;;;;5052197;28;20229;-79
2022/09/25 09:12:25;;;;;;;10.30;9.10;;;14.80;99.90;;;;;;5052601;28;20205;-79
2022/09/25 09:15:05;;;;;;;8.60;7.78;;;14.90;99.90;;;;;;5052348;28;20205;-80
2022/09/25 09:17:41;;;;;;;9.35;8.45;;;14.90;99.90;;;;;;5052641;28;20217;-79
2022/09/25 09:20:17;;;;;;;8.70;7.35;;;14.90;99.90;;;;;;5052687;28;20236;-79
2022/09/25 09:22:51;;;;;;;8.70;7.88;;;14.80;99.90;;;;;;5052425;28;20209;-79
2022/09/25 09:25:27;;;;;;;9.35;8.25;;;14.90;99.90;;;;;;5053410;28;20213;-85
2022/09/25 09:28:25;;;;;;;8.45;7.75;;;14.90;99.90;;;;;;5056394;28;20205;-84
2022/09/25 09:31:02;;;;;;;9.68;8.75;;;14.90;99.90;;;;;;5056206;28;20225;-87
2022/09/25 09:33:45;;;;;;;10.70;8.75;;;14.90;99.90;;;;;;5056390;28;20210;-85
2022/09/25 09:36:22;;;;;;;10.20;9.20;;;14.90;99.90;;;;;;5055973;28;20198;-85
2022/09/25 09:38:57;;;;;;;9.90;8.70;;;14.90;99.90;;;;;;5056249;28;20232;-85
2022/09/25 09:41:39;;;;;;;8.15;7.43;;;14.90;99.90;;;;;;5056499;28;20228;-84
2022/09/25 09:44:21;;;;;;;12.25;8.27;;;14.90;99.90;;;;;;5055949;28;20202;-85
2022/09/25 09:46:58;;;;;;;7.60;6.90;;;15.00;99.90;;;;;;5056190;28;20213;-85
2022/09/25 09:49:34;;;;;;;10.18;8.82;;;15.10;99.90;;;;;;5055252;28;20230;-85
2022/09/25 09:52:09;;;;;;;12.23;9.00;;;15.20;99.90;;;;;;5056107;28;20210;-85
2022/09/25 09:54:42;;;;;;;9.38;8.43;;;15.20;99.90;;;;;;5056428;28;20214;-85
2022/09/25 09:57:15;;;;;;;8.25;7.20;;;15.20;99.90;;;;;;5056259;28;20214;-85
2022/09/25 09:59:48;;;;;;;8.55;7.85;;;15.20;99.90;;;;;;5055509;28;20230;-85
2022/09/25 10:02:30;;;;;;;10.15;9.07;;;15.20;99.90;;;;;;5055610;28;20210;-85
2022/09/25 10:05:04;;;;;;;9.80;8.77;;;15.20;99.90;;;;;;5055808;28;20213;-85
2022/09/25 10:07:36;;;;;;;9.95;8.82;;;15.10;99.90;;;;;;5055932;28;20251;-85
2022/09/25 10:10:12;;;;;;;10.52;8.57;;;15.20;99.90;;;;;;5055731;28;20252;-85
2022/09/25 10:12:44;;;;;;;9.82;7.55;;;15.20;99.90;;;;;;5055500;28;20217;-85
2022/09/25 10:15:23;;;;;;;9.10;8.30;;;15.20;99.90;;;;;;5055567;28;20201;-85
2022/09/25 10:17:53;;;;;;;8.68;7.97;;;15.30;99.90;;;;;;5055375;28;20221;-85
2022/09/25 10:20:24;;;;;;;16.73;9.10;;;15.20;99.90;;;;;;5055144;28;20226;-85
2022/09/25 10:22:55;;;;;;;16.30;9.57;;;15.10;99.90;;;;;;5055516;28;20210;-85
2022/09/25 10:25:36;;;;;;;10.98;9.88;;;15.00;99.90;;;;;;5055356;28;20205;-85
2022/09/25 10:28:23;;;;;;;10.38;9.32;;;15.00;99.90;;;;;;5055355;28;20202;-84
2022/09/25 10:30:52;;;;;;;8.55;7.75;;;15.00;99.90;;;;;;5054958;28;20228;-85
2022/09/25 10:33:23;;;;;;;8.90;8.10;;;15.00;99.90;;;;;;5055344;28;20218;-85
2022/09/25 10:35:53;;;;;;;10.23;8.88;;;15.00;99.90;;;;;;5055303;28;20205;-85
2022/09/25 10:38:34;;;;;;;9.32;7.25;;;15.00;99.90;;;;;;5054128;28;20209;-85
2022/09/25 10:41:06;;;;;;;8.75;7.75;;;14.90;99.90;;;;;;5055252;28;20264;-84
2022/09/25 10:43:35;;;;;;;10.13;8.35;;;14.90;99.90;;;;;;5054714;28;20198;-85
2022/09/25 10:46:13;;;;;;;8.10;7.40;;;14.80;99.90;;;;;;5055143;28;20217;-85
2022/09/25 10:51:31;;;;;;;9.85;8.90;;;14.80;99.90;;;;;;5054622;28;20248;-85
2022/09/25 10:54:12;;;;;;;8.80;7.90;;;14.80;99.90;;;;;;5054860;28;20206;-85
2022/09/25 10:56:41;;;;;;;9.30;8.15;;;14.80;99.90;;;;;;5057704;28;20216;-85
2022/09/25 10:59:17;;;;;;;9.75;7.88;;;14.80;99.90;;;;;;5054549;28;20237;-85
2022/09/25 11:01:47;;;;;;;8.00;7.30;;;14.80;99.90;;;;;;5054853;28;20236;-85
2022/09/25 11:04:20;;;;;;;8.18;7.28;;;14.80;99.90;;;;;;5054630;28;20275;-85
2022/09/25 11:06:52;;;;;;;7.45;6.80;;;14.70;99.90;;;;;;5054634;28;20212;-85
2022/09/25 11:09:22;;;;;;;9.25;7.72;;;14.70;99.90;;;;;;5054258;28;20233;-85
2022/09/25 11:11:54;;;;;;;8.25;7.45;;;14.70;99.90;;;;;;5054541;28;20221;-84
2022/09/25 11:14:31;;;;;;;8.30;7.45;;;14.70;99.90;;;;;;5054701;28;20234;-87
2022/09/25 11:17:04;;;;;;;8.02;7.25;;;14.80;99.90;;;;;;5054622;28;20208;-85
2022/09/25 11:19:34;;;;;;;8.70;7.80;;;14.80;99.90;;;;;;5054038;28;20248;-85
2022/09/25 11:22:16;;;;;;;8.68;7.80;;;14.90;99.90;;;;;;5054661;28;20202;-85
2022/09/25 11:24:53;;;;;;;8.75;7.68;;;14.90;99.90;;;;;;5054367;28;20212;-85
2022/09/25 11:27:34;;;;;;;7.85;7.15;;;14.90;99.90;;;;;;5054340;28;20262;-85
2022/09/25 11:30:06;;;;;;;8.32;7.50;;;15.00;99.90;;;;;;5053772;28;20255;-85
2022/09/25 11:32:42;;;;;;;8.40;7.63;;;15.00;99.90;;;;;;5053785;28;20216;-85
2022/09/25 11:35:33;;;;;;;8.68;7.88;;;15.00;99.90;;;;;;5053890;28;20210;-85
2022/09/25 11:38:11;;;;;;;8.98;8.13;;;15.10;99.90;;;;;;5054061;28;20221;-85
2022/09/25 11:41:15;;;;;;;9.55;8.57;;;15.10;99.90;;;;;;5053938;28;20235;-85
2022/09/25 11:43:51;;;;;;;8.60;7.80;;;15.10;99.90;;;;;;5053436;28;20216;-85
2022/09/25 11:46:32;;;;;;;14.98;7.70;;;15.10;99.90;;;;;;5053693;28;20213;-85
2022/09/25 11:49:09;;;;;;;9.23;8.10;;;15.10;99.90;;;;;;5052660;28;20237;-85
2022/09/25 11:52:09;;;;;;;8.43;7.00;;;15.20;99.90;;;;;;5053450;28;20278;-85
2022/09/25 11:54:51;;;;;;;8.38;7.65;;;15.10;99.90;;;;;;5007633;28;20206;-85
2022/09/25 11:57:26;;;;;;;8.80;7.97;;;15.20;99.90;;;;;;5053918;28;20218;-84
2022/09/25 12:00:07;;;;;;;7.95;7.32;;;15.20;99.90;;;;;;5053373;28;20229;-84
2022/09/25 12:02:51;;;;;;;7.82;7.03;;;15.10;99.90;;;;;;5053430;28;20205;-86
2022/09/25 12:05:40;;;;;;;8.77;6.47;;;15.20;99.90;;;;;;5053531;28;20275;-85
2022/09/25 12:08:17;;;;;;;8.05;7.35;;;15.20;99.90;;;;;;5053682;28;20216;-85
2022/09/25 12:10:57;;;;;;;8.95;8.05;;;15.30;99.90;;;;;;5053379;28;20225;-84
2022/09/25 12:13:37;;;;;;;10.18;7.13;;;15.30;99.90;;;;;;5053421;28;20208;-85
2022/09/25 12:16:13;;;;;;;8.73;7.88;;;15.30;99.90;;;;;;5053478;28;20209;-84
2022/09/25 12:19:09;;;;;;;18.55;7.22;;;15.30;99.90;;;;;;5053023;28;20249;-84
2022/09/25 12:21:44;;;;;;;8.85;7.82;;;15.30;99.90;;;;;;5024471;28;20208;-85
2022/09/25 12:24:22;;;;;;;10.23;7.90;;;15.40;99.90;;;;;;5053309;28;20209;-85
2022/09/25 12:27:00;;;;;;;9.98;7.82;;;15.40;99.90;;;;;;5053067;28;20216;-85
2022/09/25 12:29:45;;;;;;;10.57;7.75;;;15.30;99.90;;;;;;5052918;28;20244;-85
2022/09/25 12:32:23;;;;;;;8.32;7.53;;;15.40;99.90;;;;;;5052672;28;20225;-85
2022/09/25 12:35:09;;;;;;;7.75;6.97;;;15.40;99.90;;;;;;5053940;28;20212;-85
2022/09/25 12:37:42;;;;;;;8.73;7.88;;;15.40;99.90;;;;;;5053380;28;20211;-85
2022/09/25 12:40:20;;;;;;;7.82;7.18;;;15.40;99.90;;;;;;5052841;28;20237;-85
2022/09/25 12:42:56;;;;;;;8.95;7.18;;;15.50;99.90;;;;;;5052625;28;20209;-85
2022/09/25 12:45:31;;;;;;;7.43;6.72;;;15.60;99.90;;;;;;5052915;28;20205;-85
2022/09/25 12:48:07;;;;;;;9.70;7.03;;;15.80;99.90;;;;;;5053082;28;20212;-85
2022/09/25 12:50:42;;;;;;;10.05;7.43;;;16.00;99.90;;;;;;5052325;28;20218;-85
2022/09/25 12:53:22;;;;;;;12.93;7.75;;;16.00;99.90;;;;;;5053056;28;20279;-85
2022/09/25 12:55:56;;;;;;;8.15;7.32;;;16.10;99.90;;;;;;5053017;28;20205;-85
2022/09/25 12:58:37;;;;;;;7.38;6.38;;;16.30;99.90;;;;;;5052501;28;20217;-86
2022/09/25 13:01:14;;;;;;;7.18;6.53;;;16.50;99.90;;;;;;5052345;28;20209;-85
2022/09/25 13:03:48;;;;;;;7.32;6.63;;;16.80;99.90;;;;;;5052004;28;20231;-85
2022/09/25 13:06:21;;;;;;;6.95;6.05;;;17.00;99.90;;;;;;5052775;28;20289;-85
2022/09/25 13:08:57;;;;;;;6.30;5.80;;;17.30;99.90;;;;;;5052185;28;20293;-85
2022/09/25 13:11:35;;;;;;;5.47;4.97;;;17.50;99.90;;;;;;5052457;28;20229;-85
2022/09/25 13:14:12;;;;;;;6.47;5.88;;;17.70;99.90;;;;;;5052583;28;20201;-84
2022/09/25 13:16:40;;;;;;;7.18;5.75;;;17.70;99.90;;;;;;5052655;28;20327;-85
2022/09/25 13:19:23;;;;;;;7.32;5.78;;;17.60;99.90;;;;;;5052331;28;20221;-85
2022/09/25 13:21:57;;;;;;;7.65;6.07;;;17.50;99.90;;;;;;5052235;28;20208;-84
2022/09/25 13:24:26;;;;;;;5.88;5.38;;;17.40;99.90;;;;;;5052432;28;20209;-84
2022/09/25 13:26:56;;;;;;;7.40;6.63;;;17.50;99.90;;;;;;5052406;28;20209;-85
2022/09/25 13:29:28;;;;;;;6.63;5.07;;;17.50;99.90;;;;;;5052270;28;20233;-85
2022/09/25 13:32:04;;;;;;;5.65;5.15;;;17.60;99.90;;;;;;5052253;28;20221;-84
2022/09/25 13:34:38;;;;;;;5.55;5.05;;;17.80;99.90;;;;;;5052257;28;20209;-84